Etusivu
METAR-TAF:

METAR-TAF

Lentoasemat :

Hermiston Municipal Airport

Hermiston, Oregon, Yhdysvallat

Leveyspiiri: 45-49-33N, Pituuspiiri: 119-15-40W, korkeus merenpinnasta: 194 m

Tämänhetkinen sää

Tämä raportti tehtiin 7 minuuttia sitten, kello 16.53 UTC
Tuuli 6 kn luoteesta
Lämpötila 16°C
Kosteus 63%
Ilmanpaine 1005 hPa
Näkyvyys: 16.1 km
Hajanaisia pilviä 6000 ft:n korkeudessa

METAR: KHRI 191653Z AUTO 31006KT 10SM SCT060 16/09 A2968 RMK AO2 SLP046 T01610089

Aika: 10:00 (17:00 UTC)


TAF: puuttuu

Säähavainnot ja -ennusteet yli 4000 lentoasemalta (METAR- ja TAF-raportit).

Käytössä olevat sääasemat on merkitty karttaan keltaisilla ja punaisilla pisteillä.

Aseta hiiri pisteen päälle nähdäksesi sääaseman nimen.

Klikkaa sitten nähdäksesi säähavainnot ja -ennusteet.

Kartan vaihtaminen: klikkaa mustalla rastilla varustettuja vihreitä pisteitä, niin voit zoomata sisään; viivalla varustettua vihreää pistettä, niin voit zoomata ulos tai vihreitä nuolia, niin pääset viereisille kartoille.


METAR-TAF: